createdAt,value
2023-03-06T00:01:48.880Z,2.40
2023-03-06T00:04:16.505Z,2.20
2023-03-06T00:06:43.612Z,2.10
2023-03-06T00:09:10.777Z,1.80
2023-03-06T00:11:37.898Z,2.30
2023-03-06T00:14:04.999Z,2.20
2023-03-06T00:16:32.117Z,2.50
2023-03-06T00:18:59.235Z,2.10
2023-03-06T00:21:26.286Z,2.40
2023-03-06T00:23:53.372Z,2.40
2023-03-06T00:26:20.446Z,2.40
2023-03-06T00:28:47.512Z,2.20
2023-03-06T00:31:14.748Z,2.50
2023-03-06T00:33:43.403Z,2.47
2023-03-06T00:36:10.711Z,2.13
2023-03-06T00:38:37.769Z,2.30
2023-03-06T00:41:08.595Z,2.63
2023-03-06T00:43:35.669Z,2.17
2023-03-06T00:46:02.907Z,2.30
2023-03-06T00:48:30.188Z,2.67
2023-03-06T00:50:57.245Z,2.10
2023-03-06T00:53:24.534Z,2.10
2023-03-06T00:55:52.022Z,2.50
2023-03-06T00:58:19.228Z,1.90
2023-03-06T01:00:46.462Z,2.43
2023-03-06T01:03:13.620Z,2.20
2023-03-06T01:05:40.721Z,2.43
2023-03-06T01:08:08.736Z,2.50
2023-03-06T01:10:38.499Z,2.60
2023-03-06T01:13:05.609Z,2.70
2023-03-06T01:15:32.739Z,2.43
2023-03-06T01:17:59.819Z,2.53
2023-03-06T01:20:27.086Z,2.37
2023-03-06T01:22:56.444Z,2.70
2023-03-06T01:25:26.652Z,2.43
2023-03-06T01:27:53.705Z,2.57
2023-03-06T01:30:21.342Z,2.80
2023-03-06T01:32:48.496Z,2.70
2023-03-06T01:35:15.729Z,2.93
2023-03-06T01:37:42.957Z,2.93
2023-03-06T01:40:10.892Z,2.43
2023-03-06T01:42:37.962Z,2.93
2023-03-06T01:45:14.104Z,2.63
2023-03-06T01:47:41.148Z,2.70
2023-03-06T01:50:09.681Z,2.50
2023-03-06T01:52:47.064Z,2.80
2023-03-06T01:55:16.684Z,2.63
2023-03-06T01:57:48.770Z,2.60
2023-03-06T02:00:17.580Z,2.70
2023-03-06T02:02:45.962Z,2.87
2023-03-06T02:05:13.089Z,3.00
2023-03-06T02:07:42.420Z,3.00
2023-03-06T02:10:09.953Z,2.90
2023-03-06T02:12:37.566Z,2.93
2023-03-06T02:15:04.898Z,3.00
2023-03-06T02:17:34.337Z,3.40
2023-03-06T02:20:10.985Z,2.90
2023-03-06T02:22:46.636Z,3.23
2023-03-06T02:25:34.183Z,3.37
2023-03-06T02:28:01.456Z,3.20
2023-03-06T02:30:29.555Z,3.10
2023-03-06T02:32:56.807Z,3.30
2023-03-06T02:35:25.341Z,3.47
2023-03-06T02:37:52.976Z,3.20
2023-03-06T02:40:21.414Z,3.00
2023-03-06T02:42:49.415Z,3.00
2023-03-06T02:45:19.701Z,3.27
2023-03-06T02:47:46.780Z,3.20
2023-03-06T02:50:13.841Z,3.17
2023-03-06T02:52:40.925Z,3.00
2023-03-06T02:55:08.273Z,3.37
2023-03-06T02:57:35.429Z,2.83
2023-03-06T03:00:02.500Z,3.13
2023-03-06T03:02:29.556Z,3.37
2023-03-06T03:04:56.696Z,3.07
2023-03-06T03:07:23.808Z,3.43
2023-03-06T03:09:50.844Z,3.60
2023-03-06T03:12:17.919Z,3.13
2023-03-06T03:14:44.959Z,3.03
2023-03-06T03:17:12.035Z,2.87
2023-03-06T03:19:39.666Z,3.43
2023-03-06T03:22:06.821Z,3.40
2023-03-06T03:24:34.321Z,3.37
2023-03-06T03:27:01.917Z,3.40
2023-03-06T03:29:28.993Z,3.27
2023-03-06T03:31:56.038Z,3.43
2023-03-06T03:34:23.141Z,3.13
2023-03-06T03:36:50.259Z,3.03
2023-03-06T03:39:17.353Z,3.37
2023-03-06T03:41:44.736Z,3.40
2023-03-06T03:44:11.984Z,3.43
2023-03-06T03:46:39.172Z,3.70
2023-03-06T03:49:06.835Z,3.50
2023-03-06T03:51:34.312Z,3.37
2023-03-06T03:54:01.422Z,3.43
2023-03-06T03:56:29.563Z,3.33
2023-03-06T03:58:56.625Z,3.43
2023-03-06T04:01:23.656Z,3.50
2023-03-06T04:03:51.057Z,3.30
2023-03-06T04:06:18.468Z,3.37
2023-03-06T04:08:45.601Z,3.10
2023-03-06T04:11:12.734Z,3.70
2023-03-06T04:13:39.811Z,3.43
2023-03-06T04:16:07.116Z,3.20
2023-03-06T04:18:34.314Z,3.50
2023-03-06T04:21:01.377Z,3.80
2023-03-06T04:23:28.486Z,3.23
2023-03-06T04:25:55.807Z,3.20
2023-03-06T04:28:25.604Z,3.43
2023-03-06T04:30:52.681Z,3.63
2023-03-06T04:33:19.772Z,3.30
2023-03-06T04:35:46.910Z,3.20
2023-03-06T04:38:14.061Z,3.53
2023-03-06T04:40:42.268Z,3.70
2023-03-06T04:43:11.010Z,3.30
2023-03-06T04:45:38.189Z,3.40
2023-03-06T04:48:05.424Z,2.90
2023-03-06T04:50:32.682Z,3.50
2023-03-06T04:53:01.199Z,3.53
2023-03-06T04:55:28.903Z,3.50
2023-03-06T04:57:56.381Z,3.50
2023-03-06T05:00:24.792Z,3.70
2023-03-06T05:02:52.426Z,3.27
2023-03-06T05:05:19.586Z,3.23
2023-03-06T05:07:46.706Z,3.50
2023-03-06T05:10:17.963Z,3.73
2023-03-06T05:12:45.260Z,3.50
2023-03-06T05:15:13.164Z,3.70
2023-03-06T05:17:40.533Z,3.30
2023-03-06T05:20:09.583Z,3.20
2023-03-06T05:22:36.824Z,3.30
2023-03-06T05:25:04.889Z,3.43
2023-03-06T05:27:32.017Z,3.20
2023-03-06T05:29:59.239Z,3.87
2023-03-06T05:32:26.387Z,3.57
2023-03-06T05:34:53.519Z,4.10
2023-03-06T05:37:20.680Z,3.33
2023-03-06T05:39:47.885Z,4.17
2023-03-06T05:42:15.021Z,3.60
2023-03-06T05:44:42.098Z,3.57
2023-03-06T05:47:09.517Z,3.80
2023-03-06T05:49:36.812Z,3.90
2023-03-06T05:52:04.900Z,3.67
2023-03-06T05:54:32.667Z,3.67
2023-03-06T05:56:59.865Z,3.80
2023-03-06T05:59:28.492Z,3.60
2023-03-06T06:01:56.105Z,3.90
2023-03-06T06:04:23.881Z,3.50
2023-03-06T06:06:58.297Z,3.67
2023-03-06T06:09:25.769Z,3.50
2023-03-06T06:11:56.998Z,3.50
2023-03-06T06:14:24.261Z,3.53
2023-03-06T06:16:51.476Z,4.10
2023-03-06T06:19:20.004Z,3.77
2023-03-06T06:21:47.839Z,3.90
2023-03-06T06:24:18.838Z,4.40
2023-03-06T06:26:46.125Z,4.00
2023-03-06T06:29:13.628Z,3.87
2023-03-06T06:31:41.023Z,4.40
2023-03-06T06:34:08.559Z,4.23
2023-03-06T06:36:35.702Z,3.70
2023-03-06T06:39:03.445Z,4.20
2023-03-06T06:41:50.627Z,4.30
2023-03-06T06:44:18.817Z,4.23
2023-03-06T06:49:33.368Z,4.20
2023-03-06T06:52:00.817Z,4.00
2023-03-06T06:54:27.969Z,4.57
2023-03-06T06:56:55.068Z,4.33
2023-03-06T06:59:23.764Z,4.60
2023-03-06T07:01:51.782Z,4.60
2023-03-06T07:04:19.244Z,4.27
2023-03-06T07:06:46.890Z,4.50
2023-03-06T07:09:14.482Z,4.93
2023-03-06T07:11:41.774Z,4.50
2023-03-06T07:14:08.896Z,5.07
2023-03-06T07:16:36.019Z,4.43
2023-03-06T07:19:03.139Z,4.87
2023-03-06T07:21:30.325Z,4.63
2023-03-06T07:23:57.722Z,4.53
2023-03-06T07:26:28.229Z,4.53
2023-03-06T07:28:55.393Z,4.70
2023-03-06T07:31:23.743Z,4.83
2023-03-06T07:33:51.286Z,5.30
2023-03-06T07:36:18.423Z,5.33
2023-03-06T07:38:45.515Z,5.50
2023-03-06T07:41:13.797Z,5.17
2023-03-06T07:43:41.344Z,4.80
2023-03-06T07:46:08.624Z,4.97
2023-03-06T07:48:36.014Z,4.93
2023-03-06T07:51:04.673Z,4.60
2023-03-06T07:53:32.230Z,5.13
2023-03-06T07:55:59.375Z,4.50
2023-03-06T07:58:26.586Z,4.83
2023-03-06T08:00:53.710Z,4.43
2023-03-06T08:03:20.794Z,4.77
2023-03-06T08:05:47.933Z,5.20
2023-03-06T08:08:14.993Z,5.07
2023-03-06T08:10:42.112Z,5.20
2023-03-06T08:13:09.195Z,4.90
2023-03-06T08:15:36.271Z,4.93
2023-03-06T08:18:03.330Z,5.23
2023-03-06T08:20:30.462Z,4.63
2023-03-06T08:22:57.580Z,5.07
2023-03-06T08:25:25.169Z,5.13
2023-03-06T08:27:52.232Z,5.17
2023-03-06T08:30:19.863Z,5.20
2023-03-06T08:32:46.928Z,5.10
2023-03-06T08:35:14.053Z,5.10
2023-03-06T08:37:41.140Z,4.87
2023-03-06T08:40:08.632Z,4.60
2023-03-06T08:42:35.743Z,4.70
2023-03-06T08:45:03.383Z,4.63
2023-03-06T08:47:30.519Z,4.80
2023-03-06T08:50:00.393Z,4.63
2023-03-06T08:52:27.799Z,5.10
2023-03-06T08:54:55.035Z,4.70
2023-03-06T08:57:22.129Z,5.20
2023-03-06T08:59:49.175Z,4.20
2023-03-06T09:02:16.360Z,5.70
2023-03-06T09:04:43.448Z,5.20
2023-03-06T09:07:10.552Z,5.17
2023-03-06T09:09:37.631Z,5.30
2023-03-06T09:12:04.720Z,5.13
2023-03-06T09:14:32.330Z,5.23
2023-03-06T09:16:59.444Z,5.27
2023-03-06T09:19:26.570Z,5.27
2023-03-06T09:21:54.022Z,5.70
2023-03-06T09:24:21.096Z,5.70
2023-03-06T09:26:50.484Z,5.80
2023-03-06T09:29:18.707Z,5.17
2023-03-06T09:31:46.223Z,5.70
2023-03-06T09:34:13.446Z,5.87
2023-03-06T09:36:55.518Z,6.03
2023-03-06T09:39:24.267Z,5.67
2023-03-06T09:41:51.828Z,5.50
2023-03-06T09:44:32.854Z,6.17
2023-03-06T09:47:08.966Z,5.67
2023-03-06T09:49:42.122Z,6.33
2023-03-06T09:52:28.219Z,6.30
2023-03-06T09:54:57.725Z,6.67
2023-03-06T09:57:28.903Z,6.50
2023-03-06T09:59:57.874Z,5.80
2023-03-06T10:02:30.986Z,6.20
2023-03-06T10:05:01.024Z,6.63
2023-03-06T10:07:43.382Z,6.00
2023-03-06T10:10:36.887Z,6.37
2023-03-06T10:13:06.751Z,6.20
2023-03-06T10:15:36.025Z,6.27
2023-03-06T10:18:04.255Z,6.03
2023-03-06T10:20:53.689Z,6.47
2023-03-06T10:23:29.047Z,6.93
2023-03-06T10:25:56.164Z,6.67
2023-03-06T10:28:30.152Z,7.20
2023-03-06T10:31:03.966Z,6.37
2023-03-06T10:33:38.843Z,6.30
2023-03-06T10:36:06.193Z,6.80
2023-03-06T10:38:37.289Z,6.43
2023-03-06T10:41:13.611Z,6.57
2023-03-06T10:44:07.742Z,6.17
2023-03-06T10:46:36.374Z,7.33
2023-03-06T10:49:09.546Z,6.23
2023-03-06T10:51:36.651Z,6.67
2023-03-06T10:54:18.177Z,6.90
2023-03-06T10:56:46.411Z,7.27
2023-03-06T10:59:13.547Z,7.40
2023-03-06T11:01:41.930Z,6.97
2023-03-06T11:04:18.332Z,7.57
2023-03-06T11:06:45.454Z,7.63
2023-03-06T11:09:17.049Z,6.97
2023-03-06T11:11:44.181Z,7.17
2023-03-06T11:14:15.680Z,7.00
2023-03-06T11:16:52.600Z,6.77
2023-03-06T11:19:28.008Z,7.23
2023-03-06T11:22:01.165Z,7.00
2023-03-06T11:24:32.079Z,7.73
2023-03-06T11:27:01.269Z,7.27
2023-03-06T11:29:38.817Z,7.80
2023-03-06T11:32:10.340Z,6.63
2023-03-06T11:34:58.124Z,7.50
2023-03-06T11:37:43.954Z,6.63
2023-03-06T11:40:11.103Z,7.37
2023-03-06T11:42:56.941Z,6.87
2023-03-06T11:45:34.798Z,7.53
2023-03-06T11:48:18.686Z,6.70
2023-03-06T11:50:47.133Z,7.47
2023-03-06T11:53:16.070Z,7.07
2023-03-06T11:55:43.128Z,7.13
2023-03-06T11:58:36.382Z,7.60
2023-03-06T12:01:06.408Z,7.33
2023-03-06T12:03:47.754Z,8.13
2023-03-06T12:06:23.988Z,7.90
2023-03-06T12:09:04.819Z,7.83
2023-03-06T12:11:53.242Z,7.90
2023-03-06T12:14:20.304Z,8.17
2023-03-06T12:17:05.551Z,7.70
2023-03-06T12:19:39.128Z,8.03
2023-03-06T12:22:12.406Z,8.23
2023-03-06T12:24:42.342Z,8.00
2023-03-06T12:27:15.330Z,7.47
2023-03-06T12:29:48.247Z,8.30
2023-03-06T12:32:23.802Z,8.63
2023-03-06T12:35:03.110Z,8.33
2023-03-06T12:38:08.106Z,8.27
2023-03-06T12:40:38.086Z,7.97
2023-03-06T12:43:28.007Z,8.30
2023-03-06T12:45:57.775Z,8.00
2023-03-06T12:48:27.898Z,7.53
2023-03-06T12:50:55.146Z,8.07
2023-03-06T12:53:30.307Z,7.70
2023-03-06T12:55:58.928Z,7.83
2023-03-06T12:58:29.271Z,7.57
2023-03-06T13:01:03.502Z,7.70
2023-03-06T13:03:45.096Z,7.37
2023-03-06T13:06:32.452Z,7.27
2023-03-06T13:09:04.720Z,7.20
2023-03-06T13:11:45.056Z,6.77
2023-03-06T13:14:34.085Z,6.43
2023-03-06T13:17:19.966Z,6.70
2023-03-06T13:19:47.933Z,6.70
2023-03-06T13:22:16.442Z,6.30
2023-03-06T13:24:45.426Z,6.27
2023-03-06T13:27:13.193Z,6.50
2023-03-06T13:29:40.200Z,5.53
2023-03-06T13:32:16.166Z,6.40
2023-03-06T13:34:48.459Z,5.90
2023-03-06T13:37:23.169Z,6.20
2023-03-06T13:39:53.080Z,6.00
2023-03-06T13:42:25.980Z,6.43
2023-03-06T13:44:53.114Z,6.30
2023-03-06T13:47:20.380Z,6.23
2023-03-06T13:49:48.638Z,6.10
2023-03-06T13:52:23.147Z,6.30
2023-03-06T13:54:50.160Z,6.60
2023-03-06T13:57:36.014Z,6.47
2023-03-06T14:00:27.985Z,6.83
2023-03-06T14:02:59.096Z,7.07
2023-03-06T14:05:35.645Z,7.30
2023-03-06T14:08:02.815Z,6.80
2023-03-06T14:10:31.924Z,6.77
2023-03-06T14:13:07.290Z,7.40
2023-03-06T14:15:40.538Z,6.70
2023-03-06T14:18:14.053Z,7.70
2023-03-06T14:20:43.059Z,7.17
2023-03-06T14:23:22.356Z,7.23
2023-03-06T14:25:54.727Z,6.67
2023-03-06T14:28:22.795Z,7.03
2023-03-06T14:30:53.929Z,7.80
2023-03-06T14:33:27.274Z,6.83
2023-03-06T14:35:55.679Z,7.50
2023-03-06T14:38:23.607Z,6.93
2023-03-06T14:40:52.322Z,7.67
2023-03-06T14:43:29.350Z,6.77
2023-03-06T14:45:57.922Z,7.63
2023-03-06T14:48:26.498Z,6.77
2023-03-06T14:50:54.871Z,7.23
2023-03-06T14:53:24.563Z,6.93
2023-03-06T14:55:53.413Z,6.90
2023-03-06T14:58:29.160Z,6.50
2023-03-06T15:00:58.617Z,7.20
2023-03-06T15:03:28.659Z,7.00
2023-03-06T15:05:55.955Z,6.67
2023-03-06T15:08:25.960Z,6.10
2023-03-06T15:10:58.197Z,6.37
2023-03-06T15:13:26.692Z,6.17
2023-03-06T15:15:58.530Z,6.43
2023-03-06T15:18:33.870Z,5.57
2023-03-06T15:21:08.364Z,5.77
2023-03-06T15:23:35.744Z,5.50
2023-03-06T15:26:23.140Z,5.60
2023-03-06T15:29:07.035Z,5.87
2023-03-06T15:31:37.222Z,6.00
2023-03-06T15:34:04.520Z,5.23
2023-03-06T15:36:32.789Z,5.80
2023-03-06T15:39:00.819Z,5.70
2023-03-06T15:41:35.631Z,5.70
2023-03-06T15:44:04.013Z,5.33
2023-03-06T15:46:31.102Z,5.70
2023-03-06T15:49:01.766Z,5.53
2023-03-06T15:51:30.411Z,5.37
2023-03-06T15:54:11.273Z,5.30
2023-03-06T15:56:43.740Z,4.63
2023-03-06T15:59:21.651Z,5.20
2023-03-06T16:01:49.167Z,5.63
2023-03-06T16:04:17.047Z,5.50
2023-03-06T16:06:45.764Z,5.20
2023-03-06T16:09:13.820Z,5.03
2023-03-06T16:11:44.754Z,5.10
2023-03-06T16:14:18.660Z,4.87
2023-03-06T16:16:45.842Z,5.10
2023-03-06T16:19:25.228Z,5.00
2023-03-06T16:21:52.920Z,4.43
2023-03-06T16:24:19.981Z,4.10
2023-03-06T16:26:51.160Z,3.83
2023-03-06T16:29:19.059Z,4.27
2023-03-06T16:31:46.348Z,4.27
2023-03-06T16:34:13.789Z,4.10
2023-03-06T16:36:41.320Z,4.80
2023-03-06T16:39:13.759Z,4.33
2023-03-06T16:41:40.834Z,4.73
2023-03-06T16:44:09.940Z,4.30
2023-03-06T16:46:38.251Z,4.40
2023-03-06T16:49:05.307Z,4.30
2023-03-06T16:51:32.445Z,4.60
2023-03-06T16:53:59.678Z,4.43
2023-03-06T16:56:26.727Z,4.10
2023-03-06T16:58:53.774Z,4.27
2023-03-06T17:01:21.031Z,4.43
2023-03-06T17:03:48.215Z,4.53
2023-03-06T17:06:19.349Z,4.67
2023-03-06T17:08:46.733Z,4.27
2023-03-06T17:11:14.765Z,4.23
2023-03-06T17:13:42.023Z,4.27
2023-03-06T17:16:09.826Z,4.00
2023-03-06T17:18:36.939Z,4.30
2023-03-06T17:21:04.325Z,4.20
2023-03-06T17:23:31.474Z,4.80
2023-03-06T17:26:10.795Z,4.33
2023-03-06T17:28:38.488Z,4.33
2023-03-06T17:31:16.102Z,4.17
2023-03-06T17:33:43.272Z,4.60
2023-03-06T17:36:10.972Z,4.30
2023-03-06T17:38:38.332Z,3.80
2023-03-06T17:41:06.089Z,4.20
2023-03-06T17:43:33.637Z,3.90
2023-03-06T17:46:07.893Z,3.90
2023-03-06T17:48:35.102Z,3.77
2023-03-06T17:51:02.504Z,4.47
2023-03-06T17:53:29.649Z,3.80
2023-03-06T17:55:58.100Z,4.17
2023-03-06T17:58:25.701Z,3.80
2023-03-06T18:00:52.749Z,4.20
2023-03-06T18:03:19.953Z,4.30
2023-03-06T18:05:48.175Z,4.70
2023-03-06T18:08:15.824Z,4.80
2023-03-06T18:10:43.561Z,4.43
2023-03-06T18:13:10.915Z,5.03
2023-03-06T18:15:41.736Z,4.10
2023-03-06T18:18:09.078Z,4.60
2023-03-06T18:20:41.348Z,4.90
2023-03-06T18:23:08.544Z,4.50
2023-03-06T18:25:35.722Z,4.90
2023-03-06T18:28:02.839Z,4.80
2023-03-06T18:30:29.887Z,5.73
2023-03-06T18:32:57.138Z,5.47
2023-03-06T18:35:24.251Z,5.73
2023-03-06T18:37:52.155Z,5.77
2023-03-06T18:40:19.436Z,5.27
2023-03-06T18:42:48.005Z,5.43
2023-03-06T18:45:15.229Z,7.53
2023-03-06T18:47:42.293Z,6.67
2023-03-06T18:50:11.612Z,9.90
2023-03-06T18:52:38.653Z,10.17
2023-03-06T18:55:05.997Z,8.40
2023-03-06T18:57:33.087Z,6.80
2023-03-06T19:00:00.194Z,5.57
2023-03-06T19:02:27.510Z,5.47
2023-03-06T19:04:54.627Z,6.20
2023-03-06T19:07:21.770Z,6.00
2023-03-06T19:09:49.341Z,6.10
2023-03-06T19:12:17.412Z,5.83
2023-03-06T19:14:44.918Z,6.07
2023-03-06T19:17:12.227Z,5.90
2023-03-06T19:19:39.400Z,6.37
2023-03-06T19:22:06.470Z,5.83
2023-03-06T19:24:33.980Z,6.03
2023-03-06T19:27:01.039Z,5.77
2023-03-06T19:29:28.448Z,5.00
2023-03-06T19:31:57.026Z,5.80
2023-03-06T19:34:24.263Z,5.70
2023-03-06T19:36:51.381Z,15.77
2023-03-06T19:39:18.465Z,32.90
2023-03-06T19:41:46.642Z,8.27
2023-03-06T19:44:16.064Z,5.97
2023-03-06T19:46:43.533Z,5.83
2023-03-06T19:49:15.804Z,5.60
2023-03-06T19:51:43.381Z,6.43
2023-03-06T19:54:13.617Z,6.13
2023-03-06T19:56:41.011Z,8.63
2023-03-06T19:59:08.118Z,6.00
2023-03-06T20:01:35.917Z,5.90
2023-03-06T20:04:03.205Z,5.80
2023-03-06T20:06:33.581Z,5.77
2023-03-06T20:09:02.044Z,6.80
2023-03-06T20:11:29.982Z,6.60
2023-03-06T20:13:58.479Z,6.63
2023-03-06T20:16:27.948Z,9.03
2023-03-06T20:18:57.945Z,6.93
2023-03-06T20:21:25.758Z,6.33
2023-03-06T20:23:53.861Z,6.03
2023-03-06T20:26:21.044Z,6.87
2023-03-06T20:28:48.192Z,6.63
2023-03-06T20:31:16.677Z,6.43
2023-03-06T20:33:44.768Z,5.80
2023-03-06T20:36:15.717Z,6.53
2023-03-06T20:38:43.151Z,5.90
2023-03-06T20:41:27.041Z,6.07
2023-03-06T20:43:54.394Z,5.43
2023-03-06T20:46:22.586Z,5.60
2023-03-06T20:48:51.029Z,5.10
2023-03-06T20:51:22.582Z,5.40
2023-03-06T20:53:50.501Z,5.13
2023-03-06T20:56:19.031Z,5.47
2023-03-06T20:58:46.151Z,5.37
2023-03-06T21:01:20.462Z,5.07
2023-03-06T21:03:47.661Z,5.73
2023-03-06T21:06:14.807Z,5.70
2023-03-06T21:08:41.912Z,5.43
2023-03-06T21:11:09.022Z,5.37
2023-03-06T21:13:36.056Z,5.60
2023-03-06T21:16:06.945Z,5.43
2023-03-06T21:18:34.319Z,5.53
2023-03-06T21:21:05.335Z,5.30
2023-03-06T21:23:32.450Z,5.57
2023-03-06T21:25:59.559Z,5.80
2023-03-06T21:28:26.616Z,5.53
2023-03-06T21:30:53.684Z,5.90
2023-03-06T21:33:20.806Z,5.97
2023-03-06T21:35:48.149Z,6.63
2023-03-06T21:38:15.407Z,6.07
2023-03-06T21:40:42.811Z,5.90
2023-03-06T21:43:10.323Z,6.40
2023-03-06T21:45:37.411Z,6.10
2023-03-06T21:48:04.744Z,6.17
2023-03-06T21:50:31.812Z,5.90
2023-03-06T21:52:58.853Z,5.87
2023-03-06T21:55:25.957Z,6.53
2023-03-06T21:57:53.460Z,6.37
2023-03-06T22:00:20.805Z,6.57
2023-03-06T22:02:47.864Z,6.57
2023-03-06T22:05:14.998Z,6.50
2023-03-06T22:07:42.383Z,6.30
2023-03-06T22:10:12.027Z,6.67
2023-03-06T22:12:39.423Z,5.80
2023-03-06T22:15:07.044Z,5.70
2023-03-06T22:17:34.157Z,6.30
2023-03-06T22:20:01.297Z,6.67
2023-03-06T22:22:28.398Z,5.90
2023-03-06T22:24:55.440Z,6.23
2023-03-06T22:27:22.536Z,6.30
2023-03-06T22:29:49.587Z,6.33
2023-03-06T22:32:16.785Z,5.87
2023-03-06T22:34:43.911Z,6.57
2023-03-06T22:37:11.299Z,6.00
2023-03-06T22:39:38.489Z,6.10
2023-03-06T22:42:05.561Z,6.87
2023-03-06T22:44:32.633Z,6.47
2023-03-06T22:46:59.704Z,6.10
2023-03-06T22:49:27.168Z,6.47
2023-03-06T22:51:54.256Z,6.20
2023-03-06T22:54:21.386Z,5.97
2023-03-06T22:56:48.483Z,6.23
2023-03-06T22:59:15.538Z,5.73
2023-03-06T23:01:43.115Z,5.70
2023-03-06T23:04:11.334Z,5.97
2023-03-06T23:06:39.897Z,5.67
2023-03-06T23:09:13.488Z,5.93
2023-03-06T23:11:40.638Z,5.90
2023-03-06T23:14:07.900Z,6.00
2023-03-06T23:16:35.412Z,6.13
2023-03-06T23:19:02.493Z,6.13
2023-03-06T23:21:29.545Z,6.23
2023-03-06T23:23:56.692Z,5.73
2023-03-06T23:26:25.326Z,5.73
2023-03-06T23:28:52.822Z,5.40
2023-03-06T23:31:22.747Z,5.43
2023-03-06T23:33:50.077Z,5.80
2023-03-06T23:36:17.917Z,5.83
2023-03-06T23:38:45.101Z,5.90
2023-03-06T23:41:13.174Z,5.60
2023-03-06T23:43:40.284Z,6.13
2023-03-06T23:46:07.717Z,5.77
2023-03-06T23:48:35.710Z,5.40
2023-03-06T23:51:06.567Z,5.63
2023-03-06T23:53:33.718Z,5.23
2023-03-06T23:56:00.785Z,5.60
2023-03-06T23:58:27.829Z,5.13
